sensor_id;sensor_type;location;lat;lon;timestamp;P1;durP1;ratioP1;P2;durP2;ratioP2
22144;SDS011;11238;48.730;11.566;2022-11-15T00:02:15;22.77;;;14.43;;
22144;SDS011;11238;48.730;11.566;2022-11-15T00:05:00;22.05;;;14.85;;
22144;SDS011;11238;48.730;11.566;2022-11-15T00:07:45;21.48;;;13.60;;
22144;SDS011;11238;48.730;11.566;2022-11-15T00:10:30;24.42;;;14.80;;
22144;SDS011;11238;48.730;11.566;2022-11-15T00:13:15;21.30;;;14.63;;
22144;SDS011;11238;48.730;11.566;2022-11-15T00:16:00;23.30;;;15.10;;
22144;SDS011;11238;48.730;11.566;2022-11-15T00:18:46;22.60;;;14.27;;
22144;SDS011;11238;48.730;11.566;2022-11-15T00:21:30;23.50;;;15.10;;
22144;SDS011;11238;48.730;11.566;2022-11-15T00:24:15;27.33;;;15.57;;
22144;SDS011;11238;48.730;11.566;2022-11-15T00:26:59;27.45;;;16.33;;
22144;SDS011;11238;48.730;11.566;2022-11-15T00:29:44;24.77;;;15.82;;
22144;SDS011;11238;48.730;11.566;2022-11-15T00:32:32;23.35;;;15.07;;
22144;SDS011;11238;48.730;11.566;2022-11-15T00:35:17;23.20;;;15.70;;
22144;SDS011;11238;48.730;11.566;2022-11-15T00:38:02;23.55;;;14.77;;
22144;SDS011;11238;48.730;11.566;2022-11-15T00:40:47;22.65;;;14.82;;
22144;SDS011;11238;48.730;11.566;2022-11-15T00:43:31;25.83;;;15.98;;
22144;SDS011;11238;48.730;11.566;2022-11-15T00:46:16;26.50;;;16.35;;
22144;SDS011;11238;48.730;11.566;2022-11-15T00:49:03;26.25;;;15.68;;
22144;SDS011;11238;48.730;11.566;2022-11-15T00:51:48;23.17;;;14.98;;
22144;SDS011;11238;48.730;11.566;2022-11-15T00:54:32;26.98;;;15.95;;
22144;SDS011;11238;48.730;11.566;2022-11-15T00:57:16;21.88;;;14.30;;
22144;SDS011;11238;48.730;11.566;2022-11-15T01:00:00;23.13;;;14.98;;
22144;SDS011;11238;48.730;11.566;2022-11-15T01:02:45;23.85;;;14.43;;
22144;SDS011;11238;48.730;11.566;2022-11-15T01:05:30;21.90;;;13.30;;
22144;SDS011;11238;48.730;11.566;2022-11-15T01:08:15;19.98;;;13.60;;
22144;SDS011;11238;48.730;11.566;2022-11-15T01:11:01;18.92;;;13.70;;
22144;SDS011;11238;48.730;11.566;2022-11-15T01:13:47;20.15;;;13.55;;
22144;SDS011;11238;48.730;11.566;2022-11-15T01:16:31;21.55;;;14.25;;
22144;SDS011;11238;48.730;11.566;2022-11-15T01:19:17;23.23;;;14.75;;
22144;SDS011;11238;48.730;11.566;2022-11-15T01:22:02;22.73;;;13.93;;
22144;SDS011;11238;48.730;11.566;2022-11-15T01:24:47;21.45;;;13.27;;
22144;SDS011;11238;48.730;11.566;2022-11-15T01:27:33;22.83;;;14.43;;
22144;SDS011;11238;48.730;11.566;2022-11-15T01:30:18;26.35;;;14.20;;
22144;SDS011;11238;48.730;11.566;2022-11-15T01:33:03;21.02;;;13.73;;
22144;SDS011;11238;48.730;11.566;2022-11-15T01:35:47;22.83;;;14.18;;
22144;SDS011;11238;48.730;11.566;2022-11-15T01:38:32;21.45;;;13.73;;
22144;SDS011;11238;48.730;11.566;2022-11-15T01:41:17;20.42;;;13.50;;
22144;SDS011;11238;48.730;11.566;2022-11-15T01:47:30;23.23;;;13.65;;
22144;SDS011;11238;48.730;11.566;2022-11-15T01:50:19;25.83;;;14.88;;
22144;SDS011;11238;48.730;11.566;2022-11-15T01:53:08;21.00;;;13.40;;
22144;SDS011;11238;48.730;11.566;2022-11-15T01:55:54;22.48;;;14.57;;
22144;SDS011;11238;48.730;11.566;2022-11-15T01:58:39;23.77;;;14.68;;
22144;SDS011;11238;48.730;11.566;2022-11-15T02:01:25;23.75;;;13.88;;
22144;SDS011;11238;48.730;11.566;2022-11-15T02:04:31;23.17;;;13.95;;
22144;SDS011;11238;48.730;11.566;2022-11-15T02:07:18;16.33;;;11.98;;
22144;SDS011;11238;48.730;11.566;2022-11-15T02:10:10;19.92;;;13.15;;
22144;SDS011;11238;48.730;11.566;2022-11-15T02:12:57;21.08;;;13.40;;
22144;SDS011;11238;48.730;11.566;2022-11-15T02:32:10;20.42;;;12.98;;
22144;SDS011;11238;48.730;11.566;2022-11-15T02:38:12;21.38;;;12.88;;
22144;SDS011;11238;48.730;11.566;2022-11-15T02:41:08;21.58;;;13.20;;
22144;SDS011;11238;48.730;11.566;2022-11-15T02:44:17;20.98;;;13.00;;
22144;SDS011;11238;48.730;11.566;2022-11-15T02:47:29;20.63;;;12.60;;
22144;SDS011;11238;48.730;11.566;2022-11-15T02:50:21;23.30;;;14.23;;
22144;SDS011;11238;48.730;11.566;2022-11-15T02:53:09;21.30;;;13.02;;
22144;SDS011;11238;48.730;11.566;2022-11-15T02:55:54;20.92;;;13.45;;
22144;SDS011;11238;48.730;11.566;2022-11-15T03:02:20;19.45;;;12.75;;
22144;SDS011;11238;48.730;11.566;2022-11-15T03:05:12;21.95;;;13.30;;
22144;SDS011;11238;48.730;11.566;2022-11-15T03:11:15;21.20;;;13.23;;
22144;SDS011;11238;48.730;11.566;2022-11-15T03:14:06;21.27;;;13.82;;
22144;SDS011;11238;48.730;11.566;2022-11-15T03:19:53;16.70;;;11.70;;
22144;SDS011;11238;48.730;11.566;2022-11-15T03:22:42;21.50;;;13.27;;
22144;SDS011;11238;48.730;11.566;2022-11-15T03:25:29;25.38;;;13.50;;
22144;SDS011;11238;48.730;11.566;2022-11-15T03:28:22;18.48;;;11.95;;
22144;SDS011;11238;48.730;11.566;2022-11-15T03:31:12;18.80;;;12.77;;
22144;SDS011;11238;48.730;11.566;2022-11-15T03:34:25;18.90;;;11.70;;
22144;SDS011;11238;48.730;11.566;2022-11-15T03:37:16;18.98;;;12.30;;
22144;SDS011;11238;48.730;11.566;2022-11-15T03:40:04;18.27;;;12.27;;
22144;SDS011;11238;48.730;11.566;2022-11-15T03:46:14;21.50;;;12.50;;
22144;SDS011;11238;48.730;11.566;2022-11-15T03:49:32;20.75;;;12.27;;
22144;SDS011;11238;48.730;11.566;2022-11-15T03:52:20;18.40;;;12.27;;
22144;SDS011;11238;48.730;11.566;2022-11-15T03:55:06;20.83;;;12.55;;
22144;SDS011;11238;48.730;11.566;2022-11-15T03:57:53;21.80;;;12.88;;
22144;SDS011;11238;48.730;11.566;2022-11-15T04:00:40;18.95;;;12.40;;
22144;SDS011;11238;48.730;11.566;2022-11-15T04:03:25;17.67;;;11.85;;
22144;SDS011;11238;48.730;11.566;2022-11-15T04:06:10;19.13;;;12.27;;
22144;SDS011;11238;48.730;11.566;2022-11-15T04:08:54;19.35;;;12.15;;
22144;SDS011;11238;48.730;11.566;2022-11-15T04:11:39;18.58;;;12.55;;
22144;SDS011;11238;48.730;11.566;2022-11-15T04:14:23;133.05;;;82.97;;
22144;SDS011;11238;48.730;11.566;2022-11-15T04:17:08;63.13;;;37.33;;
22144;SDS011;11238;48.730;11.566;2022-11-15T04:19:52;30.20;;;18.77;;
22144;SDS011;11238;48.730;11.566;2022-11-15T04:22:56;24.02;;;15.95;;
22144;SDS011;11238;48.730;11.566;2022-11-15T04:26:04;22.98;;;14.07;;
22144;SDS011;11238;48.730;11.566;2022-11-15T04:28:52;21.40;;;14.32;;
22144;SDS011;11238;48.730;11.566;2022-11-15T04:31:55;30.67;;;15.03;;
22144;SDS011;11238;48.730;11.566;2022-11-15T04:34:40;26.95;;;14.20;;
22144;SDS011;11238;48.730;11.566;2022-11-15T04:37:24;26.30;;;14.15;;
22144;SDS011;11238;48.730;11.566;2022-11-15T04:40:09;32.60;;;14.70;;
22144;SDS011;11238;48.730;11.566;2022-11-15T04:42:53;25.88;;;14.88;;
22144;SDS011;11238;48.730;11.566;2022-11-15T04:45:38;25.20;;;16.05;;
22144;SDS011;11238;48.730;11.566;2022-11-15T04:48:22;51.70;;;18.08;;
22144;SDS011;11238;48.730;11.566;2022-11-15T04:51:06;36.85;;;18.70;;
22144;SDS011;11238;48.730;11.566;2022-11-15T04:53:51;26.42;;;15.98;;
22144;SDS011;11238;48.730;11.566;2022-11-15T04:56:35;22.05;;;14.02;;
22144;SDS011;11238;48.730;11.566;2022-11-15T04:59:20;22.23;;;12.45;;
22144;SDS011;11238;48.730;11.566;2022-11-15T05:02:04;19.25;;;11.65;;
22144;SDS011;11238;48.730;11.566;2022-11-15T05:04:49;19.30;;;12.30;;
22144;SDS011;11238;48.730;11.566;2022-11-15T05:07:33;22.33;;;13.25;;
22144;SDS011;11238;48.730;11.566;2022-11-15T05:10:18;21.92;;;13.57;;
22144;SDS011;11238;48.730;11.566;2022-11-15T05:13:02;18.20;;;12.30;;
22144;SDS011;11238;48.730;11.566;2022-11-15T05:15:47;17.98;;;12.27;;
22144;SDS011;11238;48.730;11.566;2022-11-15T05:18:31;19.77;;;13.10;;
22144;SDS011;11238;48.730;11.566;2022-11-15T05:21:16;19.70;;;12.57;;
22144;SDS011;11238;48.730;11.566;2022-11-15T05:24:00;19.92;;;12.43;;
22144;SDS011;11238;48.730;11.566;2022-11-15T05:26:45;19.33;;;12.43;;
22144;SDS011;11238;48.730;11.566;2022-11-15T05:29:29;22.55;;;12.90;;
22144;SDS011;11238;48.730;11.566;2022-11-15T05:32:13;20.67;;;12.90;;
22144;SDS011;11238;48.730;11.566;2022-11-15T05:34:58;20.02;;;12.07;;
22144;SDS011;11238;48.730;11.566;2022-11-15T05:37:43;20.98;;;12.80;;
22144;SDS011;11238;48.730;11.566;2022-11-15T05:40:28;26.98;;;13.38;;
22144;SDS011;11238;48.730;11.566;2022-11-15T05:43:14;22.88;;;13.52;;
22144;SDS011;11238;48.730;11.566;2022-11-15T05:45:58;24.23;;;13.43;;
22144;SDS011;11238;48.730;11.566;2022-11-15T05:48:47;30.48;;;13.40;;
22144;SDS011;11238;48.730;11.566;2022-11-15T05:51:34;27.65;;;14.77;;
22144;SDS011;11238;48.730;11.566;2022-11-15T05:54:19;41.55;;;15.63;;
22144;SDS011;11238;48.730;11.566;2022-11-15T05:57:06;34.10;;;18.05;;
22144;SDS011;11238;48.730;11.566;2022-11-15T05:59:51;36.60;;;19.90;;
22144;SDS011;11238;48.730;11.566;2022-11-15T06:02:35;34.42;;;17.35;;
22144;SDS011;11238;48.730;11.566;2022-11-15T06:05:20;28.92;;;17.23;;
22144;SDS011;11238;48.730;11.566;2022-11-15T06:08:04;37.85;;;18.48;;
22144;SDS011;11238;48.730;11.566;2022-11-15T06:10:48;29.45;;;17.10;;
22144;SDS011;11238;48.730;11.566;2022-11-15T06:13:32;31.45;;;17.17;;
22144;SDS011;11238;48.730;11.566;2022-11-15T06:16:17;31.48;;;18.48;;
22144;SDS011;11238;48.730;11.566;2022-11-15T06:19:02;30.45;;;17.40;;
22144;SDS011;11238;48.730;11.566;2022-11-15T06:21:46;29.95;;;17.88;;
22144;SDS011;11238;48.730;11.566;2022-11-15T06:24:31;30.38;;;17.63;;
22144;SDS011;11238;48.730;11.566;2022-11-15T06:27:16;31.08;;;16.85;;
22144;SDS011;11238;48.730;11.566;2022-11-15T06:30:00;25.90;;;14.98;;
22144;SDS011;11238;48.730;11.566;2022-11-15T06:32:45;20.70;;;13.63;;
22144;SDS011;11238;48.730;11.566;2022-11-15T06:35:30;22.02;;;13.95;;
22144;SDS011;11238;48.730;11.566;2022-11-15T06:38:17;20.15;;;13.35;;
22144;SDS011;11238;48.730;11.566;2022-11-15T06:41:05;22.63;;;12.95;;
22144;SDS011;11238;48.730;11.566;2022-11-15T06:43:51;22.83;;;13.52;;
22144;SDS011;11238;48.730;11.566;2022-11-15T06:46:36;22.95;;;13.88;;
22144;SDS011;11238;48.730;11.566;2022-11-15T06:49:21;25.90;;;16.08;;
22144;SDS011;11238;48.730;11.566;2022-11-15T06:52:05;26.08;;;15.00;;
22144;SDS011;11238;48.730;11.566;2022-11-15T06:54:50;23.50;;;15.48;;
22144;SDS011;11238;48.730;11.566;2022-11-15T06:57:35;23.55;;;13.63;;
22144;SDS011;11238;48.730;11.566;2022-11-15T07:00:20;24.23;;;14.07;;
22144;SDS011;11238;48.730;11.566;2022-11-15T07:03:05;27.15;;;15.15;;
22144;SDS011;11238;48.730;11.566;2022-11-15T07:05:50;21.52;;;13.35;;
22144;SDS011;11238;48.730;11.566;2022-11-15T07:08:37;23.13;;;12.70;;
22144;SDS011;11238;48.730;11.566;2022-11-15T07:11:21;39.22;;;13.30;;
22144;SDS011;11238;48.730;11.566;2022-11-15T07:14:06;69.07;;;12.68;;
22144;SDS011;11238;48.730;11.566;2022-11-15T07:16:50;68.13;;;12.77;;
22144;SDS011;11238;48.730;11.566;2022-11-15T07:19:34;69.03;;;12.13;;
22144;SDS011;11238;48.730;11.566;2022-11-15T07:22:19;59.63;;;12.55;;
22144;SDS011;11238;48.730;11.566;2022-11-15T07:25:04;18.35;;;11.90;;
22144;SDS011;11238;48.730;11.566;2022-11-15T07:27:55;29.23;;;13.77;;
22144;SDS011;11238;48.730;11.566;2022-11-15T07:30:40;21.58;;;13.27;;
22144;SDS011;11238;48.730;11.566;2022-11-15T07:33:25;26.63;;;14.05;;
22144;SDS011;11238;48.730;11.566;2022-11-15T07:36:09;24.13;;;14.23;;
22144;SDS011;11238;48.730;11.566;2022-11-15T07:38:53;25.60;;;14.90;;
22144;SDS011;11238;48.730;11.566;2022-11-15T07:41:38;22.17;;;14.80;;
22144;SDS011;11238;48.730;11.566;2022-11-15T07:44:23;23.38;;;14.48;;
22144;SDS011;11238;48.730;11.566;2022-11-15T07:47:09;24.20;;;14.48;;
22144;SDS011;11238;48.730;11.566;2022-11-15T07:49:53;21.38;;;14.25;;
22144;SDS011;11238;48.730;11.566;2022-11-15T07:52:37;21.80;;;14.40;;
22144;SDS011;11238;48.730;11.566;2022-11-15T07:55:22;22.88;;;13.48;;
22144;SDS011;11238;48.730;11.566;2022-11-15T07:58:11;19.58;;;12.85;;
22144;SDS011;11238;48.730;11.566;2022-11-15T08:00:56;16.60;;;12.10;;
22144;SDS011;11238;48.730;11.566;2022-11-15T08:03:40;19.27;;;13.13;;
22144;SDS011;11238;48.730;11.566;2022-11-15T08:06:25;19.40;;;12.93;;
22144;SDS011;11238;48.730;11.566;2022-11-15T08:09:09;20.92;;;14.48;;
22144;SDS011;11238;48.730;11.566;2022-11-15T08:11:54;22.15;;;14.55;;
22144;SDS011;11238;48.730;11.566;2022-11-15T08:14:38;26.90;;;17.98;;
22144;SDS011;11238;48.730;11.566;2022-11-15T08:17:23;39.85;;;23.42;;
22144;SDS011;11238;48.730;11.566;2022-11-15T08:20:08;36.70;;;22.55;;
22144;SDS011;11238;48.730;11.566;2022-11-15T08:22:53;33.00;;;21.98;;
22144;SDS011;11238;48.730;11.566;2022-11-15T08:25:38;32.30;;;20.80;;
22144;SDS011;11238;48.730;11.566;2022-11-15T08:28:22;31.45;;;19.98;;
22144;SDS011;11238;48.730;11.566;2022-11-15T08:31:12;30.67;;;20.00;;
22144;SDS011;11238;48.730;11.566;2022-11-15T08:33:58;29.45;;;19.23;;
22144;SDS011;11238;48.730;11.566;2022-11-15T08:36:43;28.42;;;18.35;;
22144;SDS011;11238;48.730;11.566;2022-11-15T08:39:27;25.88;;;18.88;;
22144;SDS011;11238;48.730;11.566;2022-11-15T08:42:12;28.27;;;18.42;;
22144;SDS011;11238;48.730;11.566;2022-11-15T08:44:58;29.65;;;17.80;;
22144;SDS011;11238;48.730;11.566;2022-11-15T08:47:43;26.27;;;16.58;;
22144;SDS011;11238;48.730;11.566;2022-11-15T08:50:28;26.60;;;17.45;;
22144;SDS011;11238;48.730;11.566;2022-11-15T08:53:13;26.50;;;17.17;;
22144;SDS011;11238;48.730;11.566;2022-11-15T08:55:57;23.92;;;16.70;;
22144;SDS011;11238;48.730;11.566;2022-11-15T08:58:42;18.73;;;12.82;;
22144;SDS011;11238;48.730;11.566;2022-11-15T09:01:26;15.18;;;11.27;;
22144;SDS011;11238;48.730;11.566;2022-11-15T09:04:11;14.70;;;10.43;;
22144;SDS011;11238;48.730;11.566;2022-11-15T09:06:55;13.27;;;9.50;;
22144;SDS011;11238;48.730;11.566;2022-11-15T09:09:40;13.98;;;9.27;;
22144;SDS011;11238;48.730;11.566;2022-11-15T09:12:25;13.07;;;9.48;;
22144;SDS011;11238;48.730;11.566;2022-11-15T09:15:10;11.32;;;9.18;;
22144;SDS011;11238;48.730;11.566;2022-11-15T09:17:57;11.57;;;9.55;;
22144;SDS011;11238;48.730;11.566;2022-11-15T09:20:43;14.32;;;9.18;;
22144;SDS011;11238;48.730;11.566;2022-11-15T09:23:28;13.45;;;8.63;;
22144;SDS011;11238;48.730;11.566;2022-11-15T09:26:13;11.77;;;9.20;;
22144;SDS011;11238;48.730;11.566;2022-11-15T09:31:41;10.32;;;8.40;;
22144;SDS011;11238;48.730;11.566;2022-11-15T09:34:26;11.07;;;8.48;;
22144;SDS011;11238;48.730;11.566;2022-11-15T09:37:11;9.25;;;7.60;;
22144;SDS011;11238;48.730;11.566;2022-11-15T09:39:56;10.90;;;7.80;;
22144;SDS011;11238;48.730;11.566;2022-11-15T09:45:56;9.65;;;8.10;;
22144;SDS011;11238;48.730;11.566;2022-11-15T09:49:00;10.07;;;8.52;;
22144;SDS011;11238;48.730;11.566;2022-11-15T09:51:51;8.73;;;7.80;;
22144;SDS011;11238;48.730;11.566;2022-11-15T09:54:26;9.00;;;8.07;;
22144;SDS011;11238;48.730;11.566;2022-11-15T10:00:12;11.27;;;8.25;;
22144;SDS011;11238;48.730;11.566;2022-11-15T10:05:23;8.75;;;7.85;;
22144;SDS011;11238;48.730;11.566;2022-11-15T10:08:16;11.20;;;8.38;;
22144;SDS011;11238;48.730;11.566;2022-11-15T10:11:00;11.80;;;8.20;;
22144;SDS011;11238;48.730;11.566;2022-11-15T10:13:30;9.98;;;8.27;;
22144;SDS011;11238;48.730;11.566;2022-11-15T10:18:54;8.95;;;7.60;;
22144;SDS011;11238;48.730;11.566;2022-11-15T10:22:08;9.20;;;7.75;;
22144;SDS011;11238;48.730;11.566;2022-11-15T10:24:46;10.85;;;8.48;;
22144;SDS011;11238;48.730;11.566;2022-11-15T10:27:16;10.27;;;8.32;;
22144;SDS011;11238;48.730;11.566;2022-11-15T10:29:47;11.15;;;8.23;;
22144;SDS011;11238;48.730;11.566;2022-11-15T10:32:19;9.68;;;8.35;;
22144;SDS011;11238;48.730;11.566;2022-11-15T10:34:47;9.07;;;8.05;;
22144;SDS011;11238;48.730;11.566;2022-11-15T10:37:14;9.82;;;8.38;;
22144;SDS011;11238;48.730;11.566;2022-11-15T10:42:49;11.52;;;8.30;;
22144;SDS011;11238;48.730;11.566;2022-11-15T10:45:33;9.82;;;8.00;;
22144;SDS011;11238;48.730;11.566;2022-11-15T10:48:18;9.75;;;7.75;;
22144;SDS011;11238;48.730;11.566;2022-11-15T10:50:47;8.88;;;7.50;;
22144;SDS011;11238;48.730;11.566;2022-11-15T10:53:27;8.82;;;7.53;;
22144;SDS011;11238;48.730;11.566;2022-11-15T10:56:01;10.15;;;8.35;;
22144;SDS011;11238;48.730;11.566;2022-11-15T10:58:32;9.95;;;7.78;;
22144;SDS011;11238;48.730;11.566;2022-11-15T11:01:08;13.23;;;7.72;;
22144;SDS011;11238;48.730;11.566;2022-11-15T11:03:42;11.38;;;8.07;;
22144;SDS011;11238;48.730;11.566;2022-11-15T11:06:14;10.52;;;8.13;;
22144;SDS011;11238;48.730;11.566;2022-11-15T11:08:55;9.95;;;7.70;;
22144;SDS011;11238;48.730;11.566;2022-11-15T11:14:23;9.25;;;7.28;;
22144;SDS011;11238;48.730;11.566;2022-11-15T11:19:44;10.43;;;7.18;;
22144;SDS011;11238;48.730;11.566;2022-11-15T11:22:32;8.43;;;6.55;;
22144;SDS011;11238;48.730;11.566;2022-11-15T11:33:16;10.38;;;7.03;;
22144;SDS011;11238;48.730;11.566;2022-11-15T11:41:22;8.50;;;7.03;;
22144;SDS011;11238;48.730;11.566;2022-11-15T11:44:18;9.43;;;7.00;;
22144;SDS011;11238;48.730;11.566;2022-11-15T11:46:48;8.80;;;6.68;;
22144;SDS011;11238;48.730;11.566;2022-11-15T11:49:23;11.90;;;7.13;;
22144;SDS011;11238;48.730;11.566;2022-11-15T12:02:39;8.55;;;6.25;;
22144;SDS011;11238;48.730;11.566;2022-11-15T12:05:13;7.32;;;6.07;;
22144;SDS011;11238;48.730;11.566;2022-11-15T12:07:53;8.38;;;6.50;;
22144;SDS011;11238;48.730;11.566;2022-11-15T12:10:28;7.82;;;6.03;;
22144;SDS011;11238;48.730;11.566;2022-11-15T12:15:27;8.80;;;6.32;;
22144;SDS011;11238;48.730;11.566;2022-11-15T12:17:57;8.80;;;6.05;;
22144;SDS011;11238;48.730;11.566;2022-11-15T12:20:26;10.88;;;6.05;;
22144;SDS011;11238;48.730;11.566;2022-11-15T12:22:57;8.98;;;6.55;;
22144;SDS011;11238;48.730;11.566;2022-11-15T12:31:13;9.02;;;5.85;;
22144;SDS011;11238;48.730;11.566;2022-11-15T12:33:44;8.43;;;6.47;;
22144;SDS011;11238;48.730;11.566;2022-11-15T12:41:14;8.52;;;5.70;;
22144;SDS011;11238;48.730;11.566;2022-11-15T12:43:43;7.22;;;5.85;;
22144;SDS011;11238;48.730;11.566;2022-11-15T13:04:46;7.88;;;5.93;;
22144;SDS011;11238;48.730;11.566;2022-11-15T13:17:49;8.55;;;5.93;;
22144;SDS011;11238;48.730;11.566;2022-11-15T13:20:18;8.50;;;6.03;;
22144;SDS011;11238;48.730;11.566;2022-11-15T13:22:59;7.80;;;6.30;;
22144;SDS011;11238;48.730;11.566;2022-11-15T13:28:29;11.60;;;6.63;;
22144;SDS011;11238;48.730;11.566;2022-11-15T13:31:03;9.80;;;7.18;;
22144;SDS011;11238;48.730;11.566;2022-11-15T13:33:45;8.25;;;6.60;;
22144;SDS011;11238;48.730;11.566;2022-11-15T13:36:15;8.57;;;6.95;;
22144;SDS011;11238;48.730;11.566;2022-11-15T13:38:56;8.70;;;6.85;;
22144;SDS011;11238;48.730;11.566;2022-11-15T13:41:49;8.80;;;7.25;;
22144;SDS011;11238;48.730;11.566;2022-11-15T13:44:20;9.27;;;6.95;;
22144;SDS011;11238;48.730;11.566;2022-11-15T13:46:47;10.40;;;7.78;;
22144;SDS011;11238;48.730;11.566;2022-11-15T13:49:13;9.75;;;7.55;;
22144;SDS011;11238;48.730;11.566;2022-11-15T13:51:49;11.85;;;7.80;;
22144;SDS011;11238;48.730;11.566;2022-11-15T13:54:20;10.07;;;7.43;;
22144;SDS011;11238;48.730;11.566;2022-11-15T13:56:53;10.98;;;8.05;;
22144;SDS011;11238;48.730;11.566;2022-11-15T13:59:26;12.30;;;7.60;;
22144;SDS011;11238;48.730;11.566;2022-11-15T14:01:59;9.63;;;7.93;;
22144;SDS011;11238;48.730;11.566;2022-11-15T14:04:34;11.98;;;7.70;;
22144;SDS011;11238;48.730;11.566;2022-11-15T14:07:00;11.75;;;8.23;;
22144;SDS011;11238;48.730;11.566;2022-11-15T14:12:20;12.60;;;8.27;;
22144;SDS011;11238;48.730;11.566;2022-11-15T14:14:55;10.88;;;8.25;;
22144;SDS011;11238;48.730;11.566;2022-11-15T14:19:53;11.60;;;8.32;;
22144;SDS011;11238;48.730;11.566;2022-11-15T14:22:23;9.70;;;7.85;;
22144;SDS011;11238;48.730;11.566;2022-11-15T14:25:07;8.85;;;7.60;;
22144;SDS011;11238;48.730;11.566;2022-11-15T14:30:38;11.20;;;8.18;;
22144;SDS011;11238;48.730;11.566;2022-11-15T14:35:50;11.20;;;8.52;;
22144;SDS011;11238;48.730;11.566;2022-11-15T14:38:17;11.25;;;8.60;;
22144;SDS011;11238;48.730;11.566;2022-11-15T14:40:43;14.20;;;9.85;;
22144;SDS011;11238;48.730;11.566;2022-11-15T14:43:10;12.18;;;8.98;;
22144;SDS011;11238;48.730;11.566;2022-11-15T14:45:37;12.95;;;9.15;;
22144;SDS011;11238;48.730;11.566;2022-11-15T14:48:03;12.98;;;8.07;;
22144;SDS011;11238;48.730;11.566;2022-11-15T14:50:30;10.35;;;7.90;;
22144;SDS011;11238;48.730;11.566;2022-11-15T14:52:58;14.63;;;8.40;;
22144;SDS011;11238;48.730;11.566;2022-11-15T14:55:25;11.57;;;8.05;;
22144;SDS011;11238;48.730;11.566;2022-11-15T14:57:57;12.17;;;7.63;;
22144;SDS011;11238;48.730;11.566;2022-11-15T15:00:24;11.95;;;7.47;;
22144;SDS011;11238;48.730;11.566;2022-11-15T15:02:52;10.23;;;7.60;;
22144;SDS011;11238;48.730;11.566;2022-11-15T15:05:19;12.23;;;8.07;;
22144;SDS011;11238;48.730;11.566;2022-11-15T15:07:51;9.60;;;7.73;;
22144;SDS011;11238;48.730;11.566;2022-11-15T15:10:18;14.38;;;7.80;;
22144;SDS011;11238;48.730;11.566;2022-11-15T15:12:44;11.00;;;9.15;;
22144;SDS011;11238;48.730;11.566;2022-11-15T15:15:14;12.77;;;8.20;;
22144;SDS011;11238;48.730;11.566;2022-11-15T15:17:41;10.68;;;8.18;;
22144;SDS011;11238;48.730;11.566;2022-11-15T15:20:07;8.20;;;6.65;;
22144;SDS011;11238;48.730;11.566;2022-11-15T15:22:34;9.55;;;6.80;;
22144;SDS011;11238;48.730;11.566;2022-11-15T15:25:01;11.57;;;7.75;;
22144;SDS011;11238;48.730;11.566;2022-11-15T15:27:27;11.05;;;7.65;;
22144;SDS011;11238;48.730;11.566;2022-11-15T15:29:53;13.88;;;8.00;;
22144;SDS011;11238;48.730;11.566;2022-11-15T15:32:18;14.30;;;8.52;;
22144;SDS011;11238;48.730;11.566;2022-11-15T15:34:44;14.15;;;7.35;;
22144;SDS011;11238;48.730;11.566;2022-11-15T15:37:23;16.00;;;7.50;;
22144;SDS011;11238;48.730;11.566;2022-11-15T15:39:51;10.65;;;8.25;;
22144;SDS011;11238;48.730;11.566;2022-11-15T15:42:18;13.25;;;8.02;;
22144;SDS011;11238;48.730;11.566;2022-11-15T15:44:44;11.32;;;8.20;;
22144;SDS011;11238;48.730;11.566;2022-11-15T15:47:11;13.15;;;8.20;;
22144;SDS011;11238;48.730;11.566;2022-11-15T15:49:47;14.27;;;8.43;;
22144;SDS011;11238;48.730;11.566;2022-11-15T15:52:14;12.32;;;8.27;;
22144;SDS011;11238;48.730;11.566;2022-11-15T15:54:40;13.02;;;8.00;;
22144;SDS011;11238;48.730;11.566;2022-11-15T15:57:06;14.60;;;8.65;;
22144;SDS011;11238;48.730;11.566;2022-11-15T15:59:33;11.00;;;7.68;;
22144;SDS011;11238;48.730;11.566;2022-11-15T16:01:59;19.85;;;8.60;;
22144;SDS011;11238;48.730;11.566;2022-11-15T16:04:24;14.82;;;8.43;;
22144;SDS011;11238;48.730;11.566;2022-11-15T16:06:51;19.42;;;7.85;;
22144;SDS011;11238;48.730;11.566;2022-11-15T16:09:19;12.30;;;7.75;;
22144;SDS011;11238;48.730;11.566;2022-11-15T16:12:05;18.17;;;12.02;;
22144;SDS011;11238;48.730;11.566;2022-11-15T16:14:31;12.93;;;9.18;;
22144;SDS011;11238;48.730;11.566;2022-11-15T16:16:57;12.43;;;7.93;;
22144;SDS011;11238;48.730;11.566;2022-11-15T16:19:23;9.88;;;6.97;;
22144;SDS011;11238;48.730;11.566;2022-11-15T16:21:49;10.50;;;7.03;;
22144;SDS011;11238;48.730;11.566;2022-11-15T16:24:17;13.00;;;7.13;;
22144;SDS011;11238;48.730;11.566;2022-11-15T16:26:43;9.85;;;6.90;;
22144;SDS011;11238;48.730;11.566;2022-11-15T16:29:10;12.75;;;6.68;;
22144;SDS011;11238;48.730;11.566;2022-11-15T16:31:36;10.65;;;7.00;;
22144;SDS011;11238;48.730;11.566;2022-11-15T16:34:02;12.38;;;8.68;;
22144;SDS011;11238;48.730;11.566;2022-11-15T16:36:30;28.05;;;16.95;;
22144;SDS011;11238;48.730;11.566;2022-11-15T16:38:57;25.90;;;16.75;;
22144;SDS011;11238;48.730;11.566;2022-11-15T16:41:46;18.33;;;12.27;;
22144;SDS011;11238;48.730;11.566;2022-11-15T16:44:12;14.43;;;10.00;;
22144;SDS011;11238;48.730;11.566;2022-11-15T16:46:40;11.25;;;8.95;;
22144;SDS011;11238;48.730;11.566;2022-11-15T16:49:13;13.20;;;7.32;;
22144;SDS011;11238;48.730;11.566;2022-11-15T16:51:40;9.07;;;6.60;;
22144;SDS011;11238;48.730;11.566;2022-11-15T16:54:06;14.48;;;7.05;;
22144;SDS011;11238;48.730;11.566;2022-11-15T16:56:33;16.95;;;11.15;;
22144;SDS011;11238;48.730;11.566;2022-11-15T16:58:59;25.02;;;15.43;;
22144;SDS011;11238;48.730;11.566;2022-11-15T17:01:33;42.65;;;28.85;;
22144;SDS011;11238;48.730;11.566;2022-11-15T17:04:00;46.55;;;29.63;;
22144;SDS011;11238;48.730;11.566;2022-11-15T17:06:37;35.92;;;21.77;;
22144;SDS011;11238;48.730;11.566;2022-11-15T17:09:04;17.95;;;11.75;;
22144;SDS011;11238;48.730;11.566;2022-11-15T17:11:31;15.63;;;9.18;;
22144;SDS011;11238;48.730;11.566;2022-11-15T17:13:57;12.00;;;8.80;;
22144;SDS011;11238;48.730;11.566;2022-11-15T17:16:23;10.27;;;7.20;;
22144;SDS011;11238;48.730;11.566;2022-11-15T17:18:50;12.80;;;7.00;;
22144;SDS011;11238;48.730;11.566;2022-11-15T17:21:17;20.95;;;15.20;;
22144;SDS011;11238;48.730;11.566;2022-11-15T17:23:44;21.25;;;11.85;;
22144;SDS011;11238;48.730;11.566;2022-11-15T17:26:11;15.18;;;9.05;;
22144;SDS011;11238;48.730;11.566;2022-11-15T17:28:38;12.05;;;8.10;;
22144;SDS011;11238;48.730;11.566;2022-11-15T17:31:05;11.55;;;7.90;;
22144;SDS011;11238;48.730;11.566;2022-11-15T17:33:35;12.85;;;6.90;;
22144;SDS011;11238;48.730;11.566;2022-11-15T17:36:04;9.82;;;6.90;;
22144;SDS011;11238;48.730;11.566;2022-11-15T17:38:31;12.00;;;8.70;;
22144;SDS011;11238;48.730;11.566;2022-11-15T17:41:08;24.65;;;16.80;;
22144;SDS011;11238;48.730;11.566;2022-11-15T17:43:37;29.42;;;18.20;;
22144;SDS011;11238;48.730;11.566;2022-11-15T17:46:04;19.00;;;13.25;;
22144;SDS011;11238;48.730;11.566;2022-11-15T17:48:34;14.80;;;9.85;;
22144;SDS011;11238;48.730;11.566;2022-11-15T17:51:01;22.70;;;13.98;;